Welwyn, United Kingdom
Current Conditions -  °F | °C
As of 2:20 PM on Friday 28 Nov 2014 (Local Time) from EGGW Reporting Station
Overcast Overcast  
Wind Chill: 50°   Ceiling: 800
Heat Index: 50°   Visibility: 5mi
Dew Point: 50°   Wind: 9mph
Humidity: 100%   Direction: 90°E
Pressure: 29.62"   Gusts: NA
Location:  51.81°N, 0.18°W
Report Text: EGGW 281420Z 09008KT 8000 OVC008 10/10 Q1003
Loading
Personal Weather Stations






























Interactive Weather Map New forecast layout! Learn more

10-Day Weather Forecast

Advertisements
Track Severe Weather on mobile